WetterOnline ( https://www.wetteronline.de )

Wetter aktuell Hildesheim

Aktuelles Wetter: Alfeld (148m)

6-stündlich | Neueste Meldungen
Ortszeit Temperatur Wetter
Mo, 15.04. 8:00 8.3° C bedeckt
Mo, 15.04. 2:00 9.4° C bewölkt
So, 14.04. 20:00 12.8° C bedeckt
So, 14.04. 14:00 15.4° C wolkig
So, 14.04. 8:00 13.7° C bewölkt
So, 14.04. 2:00 18.5° C wolkig
Sa, 13.04. 20:00 20.1° C bedeckt
Sa, 13.04. 14:00 20.8° C leicht bewölkt
Ortszeit Temperatur Wetter
Mo, 15.04. 8:30 8.4° C bedeckt
Mo, 15.04. 8:20 8.4° C bedeckt
Mo, 15.04. 8:10 8.3° C bedeckt
Mo, 15.04. 8:00 8.3° C bedeckt
Mo, 15.04. 7:50 8.3° C bedeckt
Mo, 15.04. 7:40 8.2° C bedeckt
Mo, 15.04. 7:30 8.1° C leichter Regen
Mo, 15.04. 7:00 7.9° C bedeckt
Mo, 15.04. 6:30 7.7° C bedeckt
Mo, 15.04. 6:00 7.6° C bedeckt
Mo, 15.04. 5:30 7.4° C bewölkt
Ortszeit Relative Feuchte Sichtweite
Mo, 15.04. 8:00 88% 40 km
Mo, 15.04. 2:00 67% 65 km
So, 14.04. 20:00 50% 65 km
So, 14.04. 14:00 53% 50 km
So, 14.04. 8:00 73% 50 km
So, 14.04. 2:00 65% 50 km
Sa, 13.04. 20:00 62% 55 km
Sa, 13.04. 14:00 57% 65 km
Ortszeit Relative Feuchte Sichtweite
Mo, 15.04. 8:30 88% 35 km
Mo, 15.04. 8:20 88% -
Mo, 15.04. 8:10 89% -
Mo, 15.04. 8:00 88% 40 km
Mo, 15.04. 7:50 88% -
Mo, 15.04. 7:40 90% -
Mo, 15.04. 7:30 90% 30 km
Mo, 15.04. 7:00 88% 40 km
Mo, 15.04. 6:30 90% 35 km
Mo, 15.04. 6:00 91% 30 km
Mo, 15.04. 5:30 91% 40 km
Ortszeit Niederschlagsmenge Niederschlagsart
Mo, 15.04. 8:00 2 l/m2 in 12 Std. Regen
Mo, 15.04. 2:00 0.0 l/m2 in 6 Std. -
So, 14.04. 20:00 0.0 l/m2 in 12 Std. -
So, 14.04. 14:00 0.0 l/m2 in 6 Std. -
So, 14.04. 8:00 0.0 l/m2 in 12 Std. -
So, 14.04. 2:00 0.0 l/m2 in 6 Std. -
Sa, 13.04. 20:00 0.0 l/m2 in 12 Std. -
Sa, 13.04. 14:00 0.0 l/m2 in 6 Std. -
Ortszeit Niederschlagsmenge Niederschlagsart
Mo, 15.04. 8:30 0.0 l/m2 in 30 Min -
Mo, 15.04. 8:20 keine Meldung -
Mo, 15.04. 8:10 keine Meldung -
Mo, 15.04. 8:00 <0.05 l/m2 in 1 Std. Regen
Mo, 15.04. 7:50 keine Meldung -
Mo, 15.04. 7:40 keine Meldung -
Mo, 15.04. 7:30 <0.05 l/m2 in 30 Min -
Mo, 15.04. 7:00 0.0 l/m2 in 1 Std. -
Mo, 15.04. 6:30 0.0 l/m2 in 30 Min -
Mo, 15.04. 6:00 <0.05 l/m2 in 1 Std. Regen
Mo, 15.04. 5:30 <0.05 l/m2 in 30 Min Schneeregen
Ortszeit Stärke Spitze Richtung
km/h Bft. km/h Grad Sektor
Mo, 15.04. 8:00 7 2 18 150° SO
Mo, 15.04. 2:00 4 1 11 190° S
So, 14.04. 20:00 7 2 43 320° NW
So, 14.04. 14:00 18 3 36 300° NW
So, 14.04. 8:00 9 2 41 310° NW
So, 14.04. 2:00 11 2 29 230° SW
Sa, 13.04. 20:00 13 3 35 130° SO
Sa, 13.04. 14:00 18 3 40 210° SW
Ortszeit Stärke Spitze Richtung
km/h Bft. km/h Grad Sektor
Mo, 15.04. 8:30 9 2 15 130° SO
Mo, 15.04. 8:20 9 2 - 130° SO
Mo, 15.04. 8:10 11 2 - 140° SO
Mo, 15.04. 8:00 7 2 14 150° SO
Mo, 15.04. 7:50 7 2 - 150° SO
Mo, 15.04. 7:40 7 2 - 140° SO
Mo, 15.04. 7:30 7 2 11 140° SO
Mo, 15.04. 7:00 7 2 14 190° S
Mo, 15.04. 6:30 7 2 14 170° S
Mo, 15.04. 6:00 7 2 14 160° S
Mo, 15.04. 5:30 7 2 14 160° S
Ortszeit Untergrenze Bedeckung Gattung
total tief tief mittel hoch
Mo, 15.04. 8:00 1080 m 8/8 8/8 - - -
Mo, 15.04. 2:00 1140 m 7/8 7/8 - - -
So, 14.04. 20:00 5100 m 8/8 8/8 - - -
So, 14.04. 14:00 1350 m 7/8 3/8 - - -
So, 14.04. 8:00 840 m 7/8 7/8 - - -
So, 14.04. 2:00 8100 m 8/8 0/8 - - -
Sa, 13.04. 20:00 6900 m 8/8 8/8 - - -
Sa, 13.04. 14:00 1260 m 4/8 2/8 - - -
Ortszeit Bedeckungsgrad in Achtel und Wolkenuntergrenze
Mo, 15.04. 8:30 3(1050m) 7(1260m) 8(1500m)
Mo, 15.04. 8:20 3(1050m) 7(1260m) 8(1500m)
Mo, 15.04. 8:10 8
Mo, 15.04. 8:00 5(1080m) 7(1470m) 8(1800m)
Mo, 15.04. 7:50 5(1080m) 7(1470m) 8(1800m)
Mo, 15.04. 7:40 8
Mo, 15.04. 7:30 1(690m) 7(1500m) 8(1800m)
Mo, 15.04. 7:00 1(1170m) 7(1500m) 8(2100m)
Mo, 15.04. 6:30 2(1380m) 7(1800m) 8(2400m)
Mo, 15.04. 6:00 2(600m) 3(870m) 8(1110m)
Mo, 15.04. 5:30 7(1020m)
Ortszeit Luftdruck NN (hPa) Tendenz (hPa in 3 Std.)
Mo, 15.04. 8:00 1012 - 1,6
Mo, 15.04. 2:00 1017 - 1,0
So, 14.04. 20:00 1019 - 0,9
So, 14.04. 14:00 1021 + 0,3
So, 14.04. 8:00 1019 + 1,2
So, 14.04. 2:00 1017 - 0,9
Sa, 13.04. 20:00 1019 - 2,4
Sa, 13.04. 14:00 1024 - 1,7
Ortszeit Luftdruck NN (hPa) Tendenz (hPa in 3 Std.)
Mo, 15.04. 8:30 1012 - 1,6
Mo, 15.04. 8:20 1012 keine Meldung
Mo, 15.04. 8:10 1012 keine Meldung
Mo, 15.04. 8:00 1012 - 1,6
Mo, 15.04. 7:50 1012 keine Meldung
Mo, 15.04. 7:40 1012 keine Meldung
Mo, 15.04. 7:30 1012 - 1,9
Mo, 15.04. 7:00 1012 - 2,3
Mo, 15.04. 6:30 1013 - 2,5
Mo, 15.04. 6:00 1013 - 2,8
Mo, 15.04. 5:30 1013 - 3,2
Ortszeit Schneehöhe (cm)
Mo, 15.04. 8:00 0
Mo, 15.04. 2:00 0
So, 14.04. 20:00 0
So, 14.04. 14:00 0
So, 14.04. 8:00 0
So, 14.04. 2:00 0
Sa, 13.04. 20:00 0
Sa, 13.04. 14:00 0
Ortszeit Schneehöhe (cm)
Mo, 15.04. 8:30 0
Mo, 15.04. 8:20 0
Mo, 15.04. 8:10 -
Mo, 15.04. 8:00 0
Mo, 15.04. 7:50 0
Mo, 15.04. 7:40 -
Mo, 15.04. 7:30 0
Mo, 15.04. 7:00 0
Mo, 15.04. 6:30 0
Mo, 15.04. 6:00 0
Mo, 15.04. 5:30 0
Link zu dieser Seite / Seite empfehlen

Das Wetter in ...